Terminal Aerodrome Forecast
Issued by NWS Grand Forks, ND

Home | Current Version | Previous Version | Text Only | Print | Product List | Glossary Off
Versions: 1 2 3 4 5 6 7 8 9 10 11 12 13 14 15 16 17 18

000
FTUS43 KFGF 171400 AAA
TAFFAR
TAF AMD
KFAR 171411Z 1714/1812 VRB06KT P6SM SKC
     FM171800 28012KT P6SM SCT250
     FM180000 35012KT P6SM SKC=

USA.gov is the U.S. government's official web portal to all federal, state and local government web resources and services.